sensor_id;sensor_type;location;lat;lon;timestamp;P1;durP1;ratioP1;P2;durP2;ratioP2
11935;SDS011;6027;48.576;9.180;2023-08-30T00:01:54;13.93;;;12.63;;
11935;SDS011;6027;48.576;9.180;2023-08-30T00:04:19;13.45;;;12.15;;
11935;SDS011;6027;48.576;9.180;2023-08-30T00:06:47;13.18;;;12.02;;
11935;SDS011;6027;48.576;9.180;2023-08-30T00:09:13;12.98;;;11.88;;
11935;SDS011;6027;48.576;9.180;2023-08-30T00:11:38;14.20;;;12.82;;
11935;SDS011;6027;48.576;9.180;2023-08-30T00:14:04;15.13;;;13.73;;
11935;SDS011;6027;48.576;9.180;2023-08-30T00:16:31;15.07;;;13.77;;
11935;SDS011;6027;48.576;9.180;2023-08-30T00:18:57;14.85;;;13.65;;
11935;SDS011;6027;48.576;9.180;2023-08-30T00:21:22;15.25;;;13.95;;
11935;SDS011;6027;48.576;9.180;2023-08-30T00:23:48;14.52;;;13.13;;
11935;SDS011;6027;48.576;9.180;2023-08-30T00:26:13;14.60;;;12.27;;
11935;SDS011;6027;48.576;9.180;2023-08-30T00:28:39;13.02;;;12.02;;
11935;SDS011;6027;48.576;9.180;2023-08-30T00:31:04;13.63;;;12.43;;
11935;SDS011;6027;48.576;9.180;2023-08-30T00:33:30;13.70;;;12.40;;
11935;SDS011;6027;48.576;9.180;2023-08-30T00:35:59;13.65;;;12.65;;
11935;SDS011;6027;48.576;9.180;2023-08-30T00:38:25;14.38;;;13.00;;
11935;SDS011;6027;48.576;9.180;2023-08-30T00:40:51;14.50;;;12.65;;
11935;SDS011;6027;48.576;9.180;2023-08-30T00:43:17;14.75;;;13.52;;
11935;SDS011;6027;48.576;9.180;2023-08-30T00:45:43;14.52;;;13.30;;
11935;SDS011;6027;48.576;9.180;2023-08-30T00:48:09;14.00;;;12.90;;
11935;SDS011;6027;48.576;9.180;2023-08-30T00:50:35;13.85;;;12.60;;
11935;SDS011;6027;48.576;9.180;2023-08-30T00:53:02;15.07;;;13.10;;
11935;SDS011;6027;48.576;9.180;2023-08-30T00:55:31;14.30;;;12.95;;
11935;SDS011;6027;48.576;9.180;2023-08-30T00:58:00;14.18;;;13.07;;
11935;SDS011;6027;48.576;9.180;2023-08-30T01:00:27;14.23;;;12.75;;
11935;SDS011;6027;48.576;9.180;2023-08-30T01:02:54;13.50;;;12.40;;
11935;SDS011;6027;48.576;9.180;2023-08-30T01:05:20;13.32;;;12.02;;
11935;SDS011;6027;48.576;9.180;2023-08-30T01:07:45;13.05;;;12.05;;
11935;SDS011;6027;48.576;9.180;2023-08-30T01:10:11;13.52;;;12.40;;
11935;SDS011;6027;48.576;9.180;2023-08-30T01:12:38;13.25;;;12.20;;
11935;SDS011;6027;48.576;9.180;2023-08-30T01:15:12;12.25;;;11.25;;
11935;SDS011;6027;48.576;9.180;2023-08-30T01:17:43;12.80;;;11.70;;
11935;SDS011;6027;48.576;9.180;2023-08-30T01:20:09;12.93;;;11.80;;
11935;SDS011;6027;48.576;9.180;2023-08-30T01:28:03;11.68;;;10.60;;
11935;SDS011;6027;48.576;9.180;2023-08-30T01:30:33;12.07;;;11.18;;
11935;SDS011;6027;48.576;9.180;2023-08-30T01:33:00;12.82;;;11.73;;
11935;SDS011;6027;48.576;9.180;2023-08-30T01:35:26;12.82;;;11.85;;
11935;SDS011;6027;48.576;9.180;2023-08-30T01:37:57;12.77;;;11.68;;
11935;SDS011;6027;48.576;9.180;2023-08-30T01:40:27;12.40;;;11.45;;
11935;SDS011;6027;48.576;9.180;2023-08-30T01:42:55;12.18;;;11.18;;
11935;SDS011;6027;48.576;9.180;2023-08-30T01:45:22;12.50;;;11.50;;
11935;SDS011;6027;48.576;9.180;2023-08-30T01:47:48;12.40;;;11.35;;
11935;SDS011;6027;48.576;9.180;2023-08-30T01:50:17;12.43;;;11.40;;
11935;SDS011;6027;48.576;9.180;2023-08-30T01:52:44;13.20;;;12.20;;
11935;SDS011;6027;48.576;9.180;2023-08-30T01:55:11;12.70;;;11.52;;
11935;SDS011;6027;48.576;9.180;2023-08-30T01:57:39;12.13;;;10.95;;
11935;SDS011;6027;48.576;9.180;2023-08-30T02:00:05;12.20;;;11.13;;
11935;SDS011;6027;48.576;9.180;2023-08-30T02:02:31;12.27;;;11.27;;
11935;SDS011;6027;48.576;9.180;2023-08-30T02:04:56;12.90;;;11.77;;
11935;SDS011;6027;48.576;9.180;2023-08-30T02:07:25;12.90;;;11.90;;
11935;SDS011;6027;48.576;9.180;2023-08-30T02:10:00;11.45;;;10.45;;
11935;SDS011;6027;48.576;9.180;2023-08-30T02:12:39;11.32;;;10.43;;
11935;SDS011;6027;48.576;9.180;2023-08-30T02:15:11;12.20;;;11.27;;
11935;SDS011;6027;48.576;9.180;2023-08-30T02:17:38;11.77;;;10.73;;
11935;SDS011;6027;48.576;9.180;2023-08-30T02:20:04;12.95;;;12.05;;
11935;SDS011;6027;48.576;9.180;2023-08-30T02:22:32;12.70;;;11.77;;
11935;SDS011;6027;48.576;9.180;2023-08-30T02:24:58;13.88;;;11.57;;
11935;SDS011;6027;48.576;9.180;2023-08-30T02:27:24;12.57;;;11.57;;
11935;SDS011;6027;48.576;9.180;2023-08-30T02:29:50;13.25;;;12.18;;
11935;SDS011;6027;48.576;9.180;2023-08-30T02:32:16;12.63;;;11.63;;
11935;SDS011;6027;48.576;9.180;2023-08-30T02:34:46;12.57;;;11.57;;
11935;SDS011;6027;48.576;9.180;2023-08-30T02:37:15;12.85;;;11.75;;
11935;SDS011;6027;48.576;9.180;2023-08-30T02:39:40;11.95;;;10.93;;
11935;SDS011;6027;48.576;9.180;2023-08-30T02:42:06;13.98;;;12.65;;
11935;SDS011;6027;48.576;9.180;2023-08-30T02:44:31;13.10;;;11.80;;
11935;SDS011;6027;48.576;9.180;2023-08-30T02:46:56;12.75;;;11.60;;
11935;SDS011;6027;48.576;9.180;2023-08-30T02:49:22;12.80;;;11.90;;
11935;SDS011;6027;48.576;9.180;2023-08-30T02:51:47;12.77;;;11.77;;
11935;SDS011;6027;48.576;9.180;2023-08-30T02:54:13;13.40;;;12.25;;
11935;SDS011;6027;48.576;9.180;2023-08-30T02:56:39;12.95;;;11.95;;
11935;SDS011;6027;48.576;9.180;2023-08-30T02:59:08;11.88;;;11.07;;
11935;SDS011;6027;48.576;9.180;2023-08-30T03:01:34;13.35;;;12.13;;
11935;SDS011;6027;48.576;9.180;2023-08-30T03:04:00;12.80;;;11.80;;
11935;SDS011;6027;48.576;9.180;2023-08-30T03:06:26;13.55;;;11.60;;
11935;SDS011;6027;48.576;9.180;2023-08-30T03:08:53;12.13;;;11.27;;
11935;SDS011;6027;48.576;9.180;2023-08-30T03:11:19;12.43;;;11.52;;
11935;SDS011;6027;48.576;9.180;2023-08-30T03:13:44;17.95;;;12.45;;
11935;SDS011;6027;48.576;9.180;2023-08-30T03:16:13;12.15;;;11.18;;
11935;SDS011;6027;48.576;9.180;2023-08-30T03:18:39;13.55;;;12.18;;
11935;SDS011;6027;48.576;9.180;2023-08-30T03:21:06;13.25;;;12.05;;
11935;SDS011;6027;48.576;9.180;2023-08-30T03:23:32;12.32;;;11.27;;
11935;SDS011;6027;48.576;9.180;2023-08-30T03:25:58;11.77;;;10.98;;
11935;SDS011;6027;48.576;9.180;2023-08-30T03:28:24;12.80;;;11.80;;
11935;SDS011;6027;48.576;9.180;2023-08-30T03:30:49;13.35;;;10.98;;
11935;SDS011;6027;48.576;9.180;2023-08-30T03:33:15;12.43;;;11.50;;
11935;SDS011;6027;48.576;9.180;2023-08-30T03:35:40;12.27;;;11.25;;
11935;SDS011;6027;48.576;9.180;2023-08-30T03:38:06;13.18;;;11.88;;
11935;SDS011;6027;48.576;9.180;2023-08-30T03:40:32;12.10;;;11.00;;
11935;SDS011;6027;48.576;9.180;2023-08-30T03:42:58;11.25;;;10.45;;
11935;SDS011;6027;48.576;9.180;2023-08-30T03:45:23;11.70;;;10.80;;
11935;SDS011;6027;48.576;9.180;2023-08-30T03:47:48;11.48;;;10.68;;
11935;SDS011;6027;48.576;9.180;2023-08-30T03:50:14;12.20;;;11.10;;
11935;SDS011;6027;48.576;9.180;2023-08-30T03:52:40;11.82;;;10.93;;
11935;SDS011;6027;48.576;9.180;2023-08-30T03:55:05;11.93;;;11.02;;
11935;SDS011;6027;48.576;9.180;2023-08-30T03:57:31;13.00;;;11.98;;
11935;SDS011;6027;48.576;9.180;2023-08-30T03:59:56;12.52;;;11.43;;
11935;SDS011;6027;48.576;9.180;2023-08-30T04:02:22;12.52;;;11.43;;
11935;SDS011;6027;48.576;9.180;2023-08-30T04:04:48;11.85;;;10.85;;
11935;SDS011;6027;48.576;9.180;2023-08-30T04:07:14;10.98;;;10.15;;
11935;SDS011;6027;48.576;9.180;2023-08-30T04:09:40;11.25;;;10.25;;
11935;SDS011;6027;48.576;9.180;2023-08-30T04:12:06;13.05;;;11.80;;
11935;SDS011;6027;48.576;9.180;2023-08-30T04:14:31;12.25;;;11.05;;
11935;SDS011;6027;48.576;9.180;2023-08-30T04:16:57;13.38;;;12.25;;
11935;SDS011;6027;48.576;9.180;2023-08-30T04:19:22;13.07;;;11.90;;
11935;SDS011;6027;48.576;9.180;2023-08-30T04:21:48;13.18;;;11.95;;
11935;SDS011;6027;48.576;9.180;2023-08-30T04:24:15;18.85;;;12.25;;
11935;SDS011;6027;48.576;9.180;2023-08-30T04:26:41;19.75;;;13.98;;
11935;SDS011;6027;48.576;9.180;2023-08-30T04:29:06;23.77;;;14.00;;
11935;SDS011;6027;48.576;9.180;2023-08-30T04:31:32;30.77;;;13.80;;
11935;SDS011;6027;48.576;9.180;2023-08-30T04:33:57;32.67;;;14.82;;
11935;SDS011;6027;48.576;9.180;2023-08-30T04:36:23;39.30;;;15.27;;
11935;SDS011;6027;48.576;9.180;2023-08-30T04:38:48;19.98;;;14.68;;
11935;SDS011;6027;48.576;9.180;2023-08-30T04:41:14;72.25;;;16.30;;
11935;SDS011;6027;48.576;9.180;2023-08-30T04:43:39;50.60;;;16.13;;
11935;SDS011;6027;48.576;9.180;2023-08-30T04:46:05;15.60;;;14.30;;
11935;SDS011;6027;48.576;9.180;2023-08-30T04:48:31;16.45;;;15.10;;
11935;SDS011;6027;48.576;9.180;2023-08-30T04:51:01;15.38;;;13.70;;
11935;SDS011;6027;48.576;9.180;2023-08-30T04:53:28;14.45;;;13.25;;
11935;SDS011;6027;48.576;9.180;2023-08-30T04:55:54;14.52;;;13.43;;
11935;SDS011;6027;48.576;9.180;2023-08-30T04:58:19;14.57;;;13.15;;
11935;SDS011;6027;48.576;9.180;2023-08-30T05:00:45;15.30;;;13.90;;
11935;SDS011;6027;48.576;9.180;2023-08-30T05:03:10;15.80;;;14.35;;
11935;SDS011;6027;48.576;9.180;2023-08-30T05:05:36;14.85;;;13.57;;
11935;SDS011;6027;48.576;9.180;2023-08-30T05:08:01;11.25;;;10.20;;
11935;SDS011;6027;48.576;9.180;2023-08-30T05:10:28;15.23;;;14.07;;
11935;SDS011;6027;48.576;9.180;2023-08-30T05:12:53;15.55;;;14.32;;
11935;SDS011;6027;48.576;9.180;2023-08-30T05:15:28;15.13;;;13.73;;
11935;SDS011;6027;48.576;9.180;2023-08-30T05:17:54;14.35;;;13.18;;
11935;SDS011;6027;48.576;9.180;2023-08-30T05:20:19;14.98;;;13.63;;
11935;SDS011;6027;48.576;9.180;2023-08-30T05:22:44;16.05;;;14.65;;
11935;SDS011;6027;48.576;9.180;2023-08-30T05:25:10;15.27;;;13.98;;
11935;SDS011;6027;48.576;9.180;2023-08-30T05:27:35;17.08;;;15.13;;
11935;SDS011;6027;48.576;9.180;2023-08-30T05:30:01;17.27;;;15.63;;
11935;SDS011;6027;48.576;9.180;2023-08-30T05:32:28;16.17;;;14.82;;
11935;SDS011;6027;48.576;9.180;2023-08-30T05:34:53;16.85;;;15.45;;
11935;SDS011;6027;48.576;9.180;2023-08-30T05:37:19;15.60;;;14.25;;
11935;SDS011;6027;48.576;9.180;2023-08-30T05:39:44;16.25;;;14.90;;
11935;SDS011;6027;48.576;9.180;2023-08-30T05:42:10;15.52;;;14.32;;
11935;SDS011;6027;48.576;9.180;2023-08-30T05:44:35;15.63;;;14.23;;
11935;SDS011;6027;48.576;9.180;2023-08-30T05:47:01;15.70;;;14.48;;
11935;SDS011;6027;48.576;9.180;2023-08-30T05:49:26;16.08;;;14.57;;
11935;SDS011;6027;48.576;9.180;2023-08-30T05:51:51;16.48;;;14.70;;
11935;SDS011;6027;48.576;9.180;2023-08-30T05:54:17;16.40;;;15.10;;
11935;SDS011;6027;48.576;9.180;2023-08-30T05:56:42;15.18;;;13.82;;
11935;SDS011;6027;48.576;9.180;2023-08-30T05:59:08;16.15;;;14.70;;
11935;SDS011;6027;48.576;9.180;2023-08-30T06:01:34;16.48;;;15.07;;
11935;SDS011;6027;48.576;9.180;2023-08-30T06:04:00;16.88;;;15.43;;
11935;SDS011;6027;48.576;9.180;2023-08-30T06:06:26;16.83;;;15.32;;
11935;SDS011;6027;48.576;9.180;2023-08-30T06:08:52;16.33;;;14.75;;
11935;SDS011;6027;48.576;9.180;2023-08-30T06:11:17;16.52;;;15.02;;
11935;SDS011;6027;48.576;9.180;2023-08-30T06:13:43;16.55;;;15.23;;
11935;SDS011;6027;48.576;9.180;2023-08-30T06:16:09;16.10;;;14.60;;
11935;SDS011;6027;48.576;9.180;2023-08-30T06:18:35;17.10;;;15.80;;
11935;SDS011;6027;48.576;9.180;2023-08-30T06:21:02;17.45;;;15.95;;
11935;SDS011;6027;48.576;9.180;2023-08-30T06:23:29;16.33;;;15.02;;
11935;SDS011;6027;48.576;9.180;2023-08-30T06:25:55;16.25;;;14.77;;
11935;SDS011;6027;48.576;9.180;2023-08-30T06:28:23;15.57;;;14.27;;
11935;SDS011;6027;48.576;9.180;2023-08-30T06:30:49;15.95;;;14.55;;
11935;SDS011;6027;48.576;9.180;2023-08-30T06:33:15;15.38;;;14.20;;
11935;SDS011;6027;48.576;9.180;2023-08-30T06:35:41;15.25;;;14.05;;
11935;SDS011;6027;48.576;9.180;2023-08-30T06:38:07;16.15;;;14.82;;
11935;SDS011;6027;48.576;9.180;2023-08-30T06:40:33;15.35;;;14.05;;
11935;SDS011;6027;48.576;9.180;2023-08-30T06:42:58;16.23;;;14.43;;
11935;SDS011;6027;48.576;9.180;2023-08-30T06:45:27;15.55;;;14.27;;
11935;SDS011;6027;48.576;9.180;2023-08-30T06:47:52;16.42;;;15.10;;
11935;SDS011;6027;48.576;9.180;2023-08-30T06:50:18;16.42;;;14.95;;
11935;SDS011;6027;48.576;9.180;2023-08-30T06:52:43;15.10;;;13.90;;
11935;SDS011;6027;48.576;9.180;2023-08-30T06:55:09;14.85;;;13.65;;
11935;SDS011;6027;48.576;9.180;2023-08-30T06:57:34;15.57;;;14.23;;
11935;SDS011;6027;48.576;9.180;2023-08-30T07:00:00;15.82;;;14.43;;
11935;SDS011;6027;48.576;9.180;2023-08-30T07:02:32;14.98;;;13.68;;
11935;SDS011;6027;48.576;9.180;2023-08-30T07:05:00;15.65;;;14.32;;
11935;SDS011;6027;48.576;9.180;2023-08-30T07:07:26;16.65;;;15.15;;
11935;SDS011;6027;48.576;9.180;2023-08-30T07:09:51;15.07;;;13.68;;
11935;SDS011;6027;48.576;9.180;2023-08-30T07:12:17;14.45;;;13.13;;
11935;SDS011;6027;48.576;9.180;2023-08-30T07:14:42;14.07;;;12.73;;
11935;SDS011;6027;48.576;9.180;2023-08-30T07:17:08;13.20;;;12.20;;
11935;SDS011;6027;48.576;9.180;2023-08-30T07:19:33;13.95;;;12.82;;
11935;SDS011;6027;48.576;9.180;2023-08-30T07:21:59;15.65;;;14.45;;
11935;SDS011;6027;48.576;9.180;2023-08-30T07:24:24;16.42;;;15.15;;
11935;SDS011;6027;48.576;9.180;2023-08-30T07:26:50;14.73;;;13.40;;
11935;SDS011;6027;48.576;9.180;2023-08-30T07:29:15;14.57;;;13.48;;
11935;SDS011;6027;48.576;9.180;2023-08-30T07:31:41;13.93;;;12.82;;
11935;SDS011;6027;48.576;9.180;2023-08-30T07:34:06;12.63;;;11.57;;
11935;SDS011;6027;48.576;9.180;2023-08-30T07:36:33;12.30;;;11.40;;
11935;SDS011;6027;48.576;9.180;2023-08-30T07:38:58;13.00;;;11.90;;
11935;SDS011;6027;48.576;9.180;2023-08-30T07:41:25;13.68;;;12.57;;
11935;SDS011;6027;48.576;9.180;2023-08-30T07:43:50;13.68;;;12.48;;
11935;SDS011;6027;48.576;9.180;2023-08-30T07:46:16;13.02;;;12.07;;
11935;SDS011;6027;48.576;9.180;2023-08-30T07:48:41;13.32;;;12.23;;
11935;SDS011;6027;48.576;9.180;2023-08-30T07:51:07;13.38;;;12.38;;
11935;SDS011;6027;48.576;9.180;2023-08-30T07:53:32;13.88;;;12.63;;
11935;SDS011;6027;48.576;9.180;2023-08-30T07:55:58;14.27;;;13.23;;
11935;SDS011;6027;48.576;9.180;2023-08-30T07:58:23;13.95;;;12.93;;
11935;SDS011;6027;48.576;9.180;2023-08-30T08:00:52;14.60;;;13.27;;
11935;SDS011;6027;48.576;9.180;2023-08-30T08:03:20;15.32;;;14.15;;
11935;SDS011;6027;48.576;9.180;2023-08-30T08:05:46;12.98;;;11.98;;
11935;SDS011;6027;48.576;9.180;2023-08-30T08:08:12;14.10;;;12.80;;
11935;SDS011;6027;48.576;9.180;2023-08-30T08:10:44;14.23;;;12.80;;
11935;SDS011;6027;48.576;9.180;2023-08-30T08:13:09;12.90;;;11.82;;
11935;SDS011;6027;48.576;9.180;2023-08-30T08:15:35;12.93;;;11.93;;
11935;SDS011;6027;48.576;9.180;2023-08-30T08:18:01;12.27;;;11.38;;
11935;SDS011;6027;48.576;9.180;2023-08-30T08:20:28;11.98;;;11.13;;
11935;SDS011;6027;48.576;9.180;2023-08-30T08:22:54;11.95;;;11.05;;
11935;SDS011;6027;48.576;9.180;2023-08-30T08:25:20;13.05;;;12.02;;
11935;SDS011;6027;48.576;9.180;2023-08-30T08:27:47;11.70;;;10.70;;
11935;SDS011;6027;48.576;9.180;2023-08-30T08:30:13;10.63;;;9.82;;
11935;SDS011;6027;48.576;9.180;2023-08-30T08:32:38;9.77;;;8.90;;
11935;SDS011;6027;48.576;9.180;2023-08-30T08:35:04;9.00;;;8.25;;
11935;SDS011;6027;48.576;9.180;2023-08-30T08:37:31;8.75;;;8.05;;
11935;SDS011;6027;48.576;9.180;2023-08-30T08:39:57;10.00;;;9.18;;
11935;SDS011;6027;48.576;9.180;2023-08-30T08:42:22;8.98;;;8.27;;
11935;SDS011;6027;48.576;9.180;2023-08-30T08:44:53;9.07;;;8.38;;
11935;SDS011;6027;48.576;9.180;2023-08-30T08:47:20;8.60;;;8.00;;
11935;SDS011;6027;48.576;9.180;2023-08-30T08:49:46;8.48;;;7.78;;
11935;SDS011;6027;48.576;9.180;2023-08-30T08:52:13;8.57;;;7.93;;
11935;SDS011;6027;48.576;9.180;2023-08-30T08:54:39;8.32;;;7.68;;
11935;SDS011;6027;48.576;9.180;2023-08-30T08:57:06;8.73;;;8.02;;
11935;SDS011;6027;48.576;9.180;2023-08-30T08:59:32;8.15;;;7.55;;
11935;SDS011;6027;48.576;9.180;2023-08-30T09:01:59;7.93;;;7.32;;
11935;SDS011;6027;48.576;9.180;2023-08-30T09:04:25;6.78;;;6.28;;
11935;SDS011;6027;48.576;9.180;2023-08-30T09:06:51;7.50;;;6.90;;
11935;SDS011;6027;48.576;9.180;2023-08-30T09:09:17;7.10;;;6.60;;
11935;SDS011;6027;48.576;9.180;2023-08-30T09:11:43;6.85;;;6.35;;
11935;SDS011;6027;48.576;9.180;2023-08-30T09:14:08;7.47;;;6.75;;
11935;SDS011;6027;48.576;9.180;2023-08-30T09:16:35;5.47;;;5.07;;
11935;SDS011;6027;48.576;9.180;2023-08-30T09:19:01;6.60;;;6.10;;
11935;SDS011;6027;48.576;9.180;2023-08-30T09:21:28;8.07;;;7.30;;
11935;SDS011;6027;48.576;9.180;2023-08-30T09:24:01;7.00;;;6.40;;
11935;SDS011;6027;48.576;9.180;2023-08-30T09:26:28;5.50;;;5.10;;
11935;SDS011;6027;48.576;9.180;2023-08-30T09:28:55;4.82;;;4.43;;
11935;SDS011;6027;48.576;9.180;2023-08-30T09:31:20;5.07;;;4.68;;
11935;SDS011;6027;48.576;9.180;2023-08-30T09:33:46;5.03;;;4.65;;
11935;SDS011;6027;48.576;9.180;2023-08-30T09:36:14;5.35;;;4.93;;
11935;SDS011;6027;48.576;9.180;2023-08-30T09:38:40;6.72;;;6.18;;
11935;SDS011;6027;48.576;9.180;2023-08-30T09:41:06;5.93;;;5.47;;
11935;SDS011;6027;48.576;9.180;2023-08-30T09:43:32;6.68;;;6.18;;
11935;SDS011;6027;48.576;9.180;2023-08-30T09:46:04;5.13;;;4.72;;
11935;SDS011;6027;48.576;9.180;2023-08-30T09:48:30;5.40;;;4.80;;
11935;SDS011;6027;48.576;9.180;2023-08-30T09:50:57;5.70;;;5.20;;
11935;SDS011;6027;48.576;9.180;2023-08-30T09:53:25;4.47;;;4.07;;
11935;SDS011;6027;48.576;9.180;2023-08-30T09:55:53;5.35;;;4.90;;
11935;SDS011;6027;48.576;9.180;2023-08-30T09:58:20;4.55;;;4.05;;
11935;SDS011;6027;48.576;9.180;2023-08-30T10:00:47;4.30;;;3.97;;
11935;SDS011;6027;48.576;9.180;2023-08-30T10:03:13;3.90;;;3.60;;
11935;SDS011;6027;48.576;9.180;2023-08-30T10:05:41;4.25;;;3.95;;
11935;SDS011;6027;48.576;9.180;2023-08-30T10:08:08;5.03;;;3.70;;
11935;SDS011;6027;48.576;9.180;2023-08-30T10:10:35;4.53;;;3.83;;
11935;SDS011;6027;48.576;9.180;2023-08-30T10:13:03;3.67;;;3.38;;
11935;SDS011;6027;48.576;9.180;2023-08-30T10:15:31;4.82;;;4.43;;
11935;SDS011;6027;48.576;9.180;2023-08-30T10:18:01;4.10;;;3.80;;
11935;SDS011;6027;48.576;9.180;2023-08-30T10:20:28;3.72;;;3.42;;
11935;SDS011;6027;48.576;9.180;2023-08-30T10:22:53;4.18;;;3.88;;
11935;SDS011;6027;48.576;9.180;2023-08-30T10:25:23;4.03;;;3.70;;
11935;SDS011;6027;48.576;9.180;2023-08-30T10:27:51;4.15;;;3.85;;
11935;SDS011;6027;48.576;9.180;2023-08-30T10:30:19;4.13;;;3.83;;
11935;SDS011;6027;48.576;9.180;2023-08-30T10:32:46;6.95;;;3.80;;
11935;SDS011;6027;48.576;9.180;2023-08-30T10:35:12;4.05;;;3.60;;
11935;SDS011;6027;48.576;9.180;2023-08-30T10:37:39;4.15;;;3.58;;
11935;SDS011;6027;48.576;9.180;2023-08-30T10:40:05;4.15;;;3.63;;
11935;SDS011;6027;48.576;9.180;2023-08-30T10:42:31;3.55;;;3.25;;
11935;SDS011;6027;48.576;9.180;2023-08-30T10:45:00;3.75;;;3.40;;
11935;SDS011;6027;48.576;9.180;2023-08-30T10:47:31;5.20;;;3.40;;
11935;SDS011;6027;48.576;9.180;2023-08-30T10:50:03;4.25;;;3.25;;
11935;SDS011;6027;48.576;9.180;2023-08-30T10:52:30;3.60;;;3.30;;
11935;SDS011;6027;48.576;9.180;2023-08-30T10:57:34;3.30;;;3.00;;
11935;SDS011;6027;48.576;9.180;2023-08-30T11:00:04;4.40;;;3.45;;
11935;SDS011;6027;48.576;9.180;2023-08-30T11:02:30;2.92;;;2.72;;
11935;SDS011;6027;48.576;9.180;2023-08-30T11:04:57;3.30;;;3.00;;
11935;SDS011;6027;48.576;9.180;2023-08-30T11:07:27;3.30;;;3.00;;
11935;SDS011;6027;48.576;9.180;2023-08-30T11:09:53;3.00;;;2.80;;
11935;SDS011;6027;48.576;9.180;2023-08-30T11:12:18;2.75;;;2.55;;
11935;SDS011;6027;48.576;9.180;2023-08-30T11:14:47;5.68;;;3.17;;
11935;SDS011;6027;48.576;9.180;2023-08-30T11:17:13;2.78;;;2.58;;
11935;SDS011;6027;48.576;9.180;2023-08-30T11:19:40;2.70;;;2.50;;
11935;SDS011;6027;48.576;9.180;2023-08-30T11:22:06;3.55;;;3.10;;
11935;SDS011;6027;48.576;9.180;2023-08-30T11:24:33;2.53;;;2.33;;
11935;SDS011;6027;48.576;9.180;2023-08-30T11:26:59;7.28;;;5.90;;
11935;SDS011;6027;48.576;9.180;2023-08-30T11:29:26;4.50;;;4.10;;
11935;SDS011;6027;48.576;9.180;2023-08-30T11:31:51;2.72;;;2.53;;
11935;SDS011;6027;48.576;9.180;2023-08-30T11:34:19;2.80;;;2.60;;
11935;SDS011;6027;48.576;9.180;2023-08-30T11:36:46;3.10;;;2.70;;
11935;SDS011;6027;48.576;9.180;2023-08-30T11:39:12;3.67;;;2.50;;
11935;SDS011;6027;48.576;9.180;2023-08-30T11:41:38;2.60;;;2.40;;
11935;SDS011;6027;48.576;9.180;2023-08-30T11:44:05;2.70;;;2.50;;
11935;SDS011;6027;48.576;9.180;2023-08-30T11:46:30;2.55;;;2.25;;
11935;SDS011;6027;48.576;9.180;2023-08-30T11:48:57;2.30;;;2.10;;
11935;SDS011;6027;48.576;9.180;2023-08-30T11:51:22;2.42;;;2.22;;
11935;SDS011;6027;48.576;9.180;2023-08-30T11:53:48;2.20;;;2.10;;
11935;SDS011;6027;48.576;9.180;2023-08-30T11:56:14;2.28;;;2.13;;
11935;SDS011;6027;48.576;9.180;2023-08-30T11:58:41;2.08;;;1.92;;
11935;SDS011;6027;48.576;9.180;2023-08-30T12:01:07;2.35;;;2.10;;
11935;SDS011;6027;48.576;9.180;2023-08-30T12:03:33;2.53;;;1.90;;
11935;SDS011;6027;48.576;9.180;2023-08-30T12:05:58;2.00;;;1.90;;
11935;SDS011;6027;48.576;9.180;2023-08-30T12:08:25;1.95;;;1.85;;
11935;SDS011;6027;48.576;9.180;2023-08-30T12:10:52;2.10;;;1.88;;
11935;SDS011;6027;48.576;9.180;2023-08-30T12:15:52;2.67;;;2.08;;
11935;SDS011;6027;48.576;9.180;2023-08-30T12:18:22;2.10;;;1.90;;
11935;SDS011;6027;48.576;9.180;2023-08-30T12:20:56;2.20;;;2.00;;
11935;SDS011;6027;48.576;9.180;2023-08-30T12:23:29;1.90;;;1.40;;
11935;SDS011;6027;48.576;9.180;2023-08-30T12:28:32;1.00;;;1.00;;
11935;SDS011;6027;48.576;9.180;2023-08-30T12:31:02;1.98;;;1.20;;
11935;SDS011;6027;48.576;9.180;2023-08-30T12:33:29;1.25;;;1.17;;
11935;SDS011;6027;48.576;9.180;2023-08-30T12:35:55;2.20;;;1.10;;
11935;SDS011;6027;48.576;9.180;2023-08-30T12:38:21;3.22;;;1.30;;
11935;SDS011;6027;48.576;9.180;2023-08-30T12:40:48;1.83;;;1.73;;
11935;SDS011;6027;48.576;9.180;2023-08-30T12:43:14;1.60;;;1.35;;
11935;SDS011;6027;48.576;9.180;2023-08-30T12:45:41;3.28;;;2.10;;
11935;SDS011;6027;48.576;9.180;2023-08-30T12:48:07;2.50;;;2.30;;
11935;SDS011;6027;48.576;9.180;2023-08-30T12:50:37;1.75;;;1.65;;
11935;SDS011;6027;48.576;9.180;2023-08-30T12:53:04;1.50;;;1.40;;
11935;SDS011;6027;48.576;9.180;2023-08-30T12:55:30;1.38;;;1.23;;
11935;SDS011;6027;48.576;9.180;2023-08-30T12:57:56;1.50;;;1.40;;
11935;SDS011;6027;48.576;9.180;2023-08-30T13:00:21;1.92;;;1.83;;
11935;SDS011;6027;48.576;9.180;2023-08-30T13:02:47;1.75;;;1.65;;
11935;SDS011;6027;48.576;9.180;2023-08-30T13:05:13;1.73;;;1.63;;
11935;SDS011;6027;48.576;9.180;2023-08-30T13:07:38;2.30;;;2.10;;
11935;SDS011;6027;48.576;9.180;2023-08-30T13:10:05;3.25;;;2.30;;
11935;SDS011;6027;48.576;9.180;2023-08-30T13:12:33;3.05;;;1.40;;
11935;SDS011;6027;48.576;9.180;2023-08-30T13:14:59;2.67;;;1.40;;
11935;SDS011;6027;48.576;9.180;2023-08-30T13:17:24;2.55;;;1.30;;
11935;SDS011;6027;48.576;9.180;2023-08-30T13:19:50;1.42;;;1.33;;
11935;SDS011;6027;48.576;9.180;2023-08-30T13:22:16;1.33;;;1.23;;
11935;SDS011;6027;48.576;9.180;2023-08-30T13:24:43;1.45;;;1.35;;
11935;SDS011;6027;48.576;9.180;2023-08-30T13:27:12;3.03;;;1.40;;
11935;SDS011;6027;48.576;9.180;2023-08-30T13:29:38;1.60;;;1.50;;
11935;SDS011;6027;48.576;9.180;2023-08-30T13:32:03;1.60;;;1.50;;
11935;SDS011;6027;48.576;9.180;2023-08-30T13:34:29;1.75;;;1.65;;
11935;SDS011;6027;48.576;9.180;2023-08-30T13:36:54;2.75;;;1.90;;
11935;SDS011;6027;48.576;9.180;2023-08-30T13:39:20;2.00;;;1.90;;
11935;SDS011;6027;48.576;9.180;2023-08-30T13:41:46;2.00;;;1.90;;
11935;SDS011;6027;48.576;9.180;2023-08-30T13:44:12;2.42;;;2.00;;
11935;SDS011;6027;48.576;9.180;2023-08-30T13:46:38;3.17;;;2.03;;
11935;SDS011;6027;48.576;9.180;2023-08-30T13:49:04;2.22;;;2.03;;
11935;SDS011;6027;48.576;9.180;2023-08-30T13:51:30;2.10;;;1.90;;
11935;SDS011;6027;48.576;9.180;2023-08-30T13:53:55;2.35;;;2.15;;
11935;SDS011;6027;48.576;9.180;2023-08-30T13:56:21;2.13;;;1.92;;
11935;SDS011;6027;48.576;9.180;2023-08-30T13:58:47;2.85;;;2.15;;
11935;SDS011;6027;48.576;9.180;2023-08-30T14:01:13;1.88;;;1.77;;
11935;SDS011;6027;48.576;9.180;2023-08-30T14:03:38;2.05;;;1.90;;
11935;SDS011;6027;48.576;9.180;2023-08-30T14:06:04;3.35;;;1.90;;
11935;SDS011;6027;48.576;9.180;2023-08-30T14:08:32;2.05;;;1.88;;
11935;SDS011;6027;48.576;9.180;2023-08-30T14:10:58;2.10;;;1.90;;
11935;SDS011;6027;48.576;9.180;2023-08-30T14:13:23;2.38;;;2.17;;
11935;SDS011;6027;48.576;9.180;2023-08-30T14:15:48;1.63;;;1.52;;
11935;SDS011;6027;48.576;9.180;2023-08-30T14:18:14;1.95;;;1.85;;
11935;SDS011;6027;48.576;9.180;2023-08-30T14:20:41;2.63;;;1.70;;
11935;SDS011;6027;48.576;9.180;2023-08-30T14:23:08;2.20;;;1.90;;
11935;SDS011;6027;48.576;9.180;2023-08-30T14:25:33;2.33;;;1.80;;
11935;SDS011;6027;48.576;9.180;2023-08-30T14:27:59;3.05;;;2.10;;
11935;SDS011;6027;48.576;9.180;2023-08-30T14:30:25;2.95;;;1.90;;
11935;SDS011;6027;48.576;9.180;2023-08-30T14:32:51;1.60;;;1.50;;
11935;SDS011;6027;48.576;9.180;2023-08-30T14:35:17;1.38;;;1.30;;
11935;SDS011;6027;48.576;9.180;2023-08-30T14:37:46;1.80;;;1.70;;
11935;SDS011;6027;48.576;9.180;2023-08-30T14:40:12;1.92;;;1.52;;
11935;SDS011;6027;48.576;9.180;2023-08-30T14:42:38;1.60;;;1.50;;
11935;SDS011;6027;48.576;9.180;2023-08-30T14:45:04;2.30;;;1.70;;
11935;SDS011;6027;48.576;9.180;2023-08-30T14:47:32;1.60;;;1.50;;
11935;SDS011;6027;48.576;9.180;2023-08-30T14:49:58;1.70;;;1.60;;
11935;SDS011;6027;48.576;9.180;2023-08-30T14:52:23;1.40;;;1.30;;
11935;SDS011;6027;48.576;9.180;2023-08-30T14:54:49;2.05;;;1.80;;